sensor_id;sensor_type;location;lat;lon;timestamp;pressure;altitude;pressure_sealevel;temperature;humidity
37694;BME280;23531;50.122;8.644;2024-01-10T00:01:12;101791.00;;;-2.93;nan
37694;BME280;23531;50.122;8.644;2024-01-10T00:03:14;101785.22;;;-2.84;nan
37694;BME280;23531;50.122;8.644;2024-01-10T00:05:15;101802.59;;;-2.81;nan
37694;BME280;23531;50.122;8.644;2024-01-10T00:07:16;101800.44;;;-2.75;nan
37694;BME280;23531;50.122;8.644;2024-01-10T00:09:17;101790.94;;;-2.77;nan
37694;BME280;23531;50.122;8.644;2024-01-10T00:11:19;101790.41;;;-2.54;nan
37694;BME280;23531;50.122;8.644;2024-01-10T00:13:21;101784.84;;;-2.78;nan
37694;BME280;23531;50.122;8.644;2024-01-10T00:15:21;101787.72;;;-2.97;nan
37694;BME280;23531;50.122;8.644;2024-01-10T00:17:22;101790.03;;;-3.52;nan
37694;BME280;23531;50.122;8.644;2024-01-10T00:19:24;101791.97;;;-3.40;nan
37694;BME280;23531;50.122;8.644;2024-01-10T00:21:25;101790.50;;;-3.30;nan
37694;BME280;23531;50.122;8.644;2024-01-10T00:23:27;101783.63;;;-3.16;nan
37694;BME280;23531;50.122;8.644;2024-01-10T00:25:28;101782.53;;;-3.28;nan
37694;BME280;23531;50.122;8.644;2024-01-10T00:27:31;101782.31;;;-3.39;nan
37694;BME280;23531;50.122;8.644;2024-01-10T00:29:32;101774.97;;;-3.18;nan
37694;BME280;23531;50.122;8.644;2024-01-10T00:31:34;101778.84;;;-3.10;nan
37694;BME280;23531;50.122;8.644;2024-01-10T00:33:35;101779.59;;;-3.53;nan
37694;BME280;23531;50.122;8.644;2024-01-10T00:35:37;101776.84;;;-3.36;nan
37694;BME280;23531;50.122;8.644;2024-01-10T00:37:37;101781.72;;;-3.14;nan
37694;BME280;23531;50.122;8.644;2024-01-10T00:39:38;101771.75;;;-2.94;nan
37694;BME280;23531;50.122;8.644;2024-01-10T00:41:40;101760.47;;;-2.96;nan
37694;BME280;23531;50.122;8.644;2024-01-10T00:43:42;101777.69;;;-3.36;nan
37694;BME280;23531;50.122;8.644;2024-01-10T00:45:44;101766.69;;;-3.12;nan
37694;BME280;23531;50.122;8.644;2024-01-10T00:47:45;101768.75;;;-2.87;nan
37694;BME280;23531;50.122;8.644;2024-01-10T00:49:47;101768.38;;;-2.81;nan
37694;BME280;23531;50.122;8.644;2024-01-10T00:51:49;101779.19;;;-2.86;nan
37694;BME280;23531;50.122;8.644;2024-01-10T00:53:49;101765.41;;;-3.35;nan
37694;BME280;23531;50.122;8.644;2024-01-10T00:55:50;101767.94;;;-3.34;nan
37694;BME280;23531;50.122;8.644;2024-01-10T00:57:52;101763.50;;;-3.63;nan
37694;BME280;23531;50.122;8.644;2024-01-10T00:59:55;101763.31;;;-3.44;nan
37694;BME280;23531;50.122;8.644;2024-01-10T01:01:56;101760.91;;;-3.49;nan
37694;BME280;23531;50.122;8.644;2024-01-10T01:03:57;101761.13;;;-3.83;nan
37694;BME280;23531;50.122;8.644;2024-01-10T01:05:59;101759.78;;;-3.75;nan
37694;BME280;23531;50.122;8.644;2024-01-10T01:08:00;101759.59;;;-3.56;nan
37694;BME280;23531;50.122;8.644;2024-01-10T01:10:02;101761.28;;;-3.09;nan
37694;BME280;23531;50.122;8.644;2024-01-10T01:12:04;101756.13;;;-2.97;nan
37694;BME280;23531;50.122;8.644;2024-01-10T01:14:06;101762.78;;;-3.05;nan
37694;BME280;23531;50.122;8.644;2024-01-10T01:16:09;101757.19;;;-2.85;nan
37694;BME280;23531;50.122;8.644;2024-01-10T01:18:11;101756.34;;;-2.85;nan
37694;BME280;23531;50.122;8.644;2024-01-10T01:20:13;101757.09;;;-2.83;nan
37694;BME280;23531;50.122;8.644;2024-01-10T01:22:13;101758.63;;;-3.09;nan
37694;BME280;23531;50.122;8.644;2024-01-10T01:24:15;101756.22;;;-2.98;nan
37694;BME280;23531;50.122;8.644;2024-01-10T01:26:16;101760.50;;;-3.11;nan
37694;BME280;23531;50.122;8.644;2024-01-10T01:28:18;101762.88;;;-3.07;nan
37694;BME280;23531;50.122;8.644;2024-01-10T01:30:19;101764.06;;;-3.12;nan
37694;BME280;23531;50.122;8.644;2024-01-10T01:32:23;101765.63;;;-2.94;nan
37694;BME280;23531;50.122;8.644;2024-01-10T01:34:24;101766.06;;;-2.72;nan
37694;BME280;23531;50.122;8.644;2024-01-10T01:36:26;101771.19;;;-3.44;nan
37694;BME280;23531;50.122;8.644;2024-01-10T01:38:27;101761.38;;;-3.26;nan
37694;BME280;23531;50.122;8.644;2024-01-10T01:40:27;101759.81;;;-3.45;nan
37694;BME280;23531;50.122;8.644;2024-01-10T01:42:29;101752.91;;;-3.77;nan
37694;BME280;23531;50.122;8.644;2024-01-10T01:44:30;101757.56;;;-3.51;nan
37694;BME280;23531;50.122;8.644;2024-01-10T01:46:32;101759.13;;;-3.33;nan
37694;BME280;23531;50.122;8.644;2024-01-10T01:48:35;101755.66;;;-3.33;nan
37694;BME280;23531;50.122;8.644;2024-01-10T01:50:35;101755.91;;;-3.08;nan
37694;BME280;23531;50.122;8.644;2024-01-10T01:52:37;101746.06;;;-2.90;nan
37694;BME280;23531;50.122;8.644;2024-01-10T01:54:39;101747.09;;;-3.07;nan
37694;BME280;23531;50.122;8.644;2024-01-10T01:56:42;101744.88;;;-3.14;nan
37694;BME280;23531;50.122;8.644;2024-01-10T01:58:45;101744.03;;;-3.15;nan
37694;BME280;23531;50.122;8.644;2024-01-10T02:00:47;101750.13;;;-3.28;nan
37694;BME280;23531;50.122;8.644;2024-01-10T02:02:48;101746.50;;;-3.12;nan
37694;BME280;23531;50.122;8.644;2024-01-10T02:04:51;101741.81;;;-2.63;nan
37694;BME280;23531;50.122;8.644;2024-01-10T02:06:52;101745.44;;;-2.94;nan
37694;BME280;23531;50.122;8.644;2024-01-10T02:08:53;101750.59;;;-2.92;nan
37694;BME280;23531;50.122;8.644;2024-01-10T02:10:54;101748.84;;;-3.37;nan
37694;BME280;23531;50.122;8.644;2024-01-10T02:12:56;101749.06;;;-3.40;nan
37694;BME280;23531;50.122;8.644;2024-01-10T02:14:57;101742.47;;;-3.17;nan
37694;BME280;23531;50.122;8.644;2024-01-10T02:16:59;101747.94;;;-3.06;nan
37694;BME280;23531;50.122;8.644;2024-01-10T02:19:00;101748.38;;;-3.44;nan
37694;BME280;23531;50.122;8.644;2024-01-10T02:21:03;101744.19;;;-3.62;nan
37694;BME280;23531;50.122;8.644;2024-01-10T02:23:04;101740.03;;;-3.36;nan
37694;BME280;23531;50.122;8.644;2024-01-10T02:25:08;101738.91;;;-3.16;nan
37694;BME280;23531;50.122;8.644;2024-01-10T02:27:10;101734.38;;;-3.14;nan
37694;BME280;23531;50.122;8.644;2024-01-10T02:29:12;101737.06;;;-2.86;nan
37694;BME280;23531;50.122;8.644;2024-01-10T02:31:12;101735.63;;;-3.36;nan
37694;BME280;23531;50.122;8.644;2024-01-10T02:33:13;101727.16;;;-3.41;nan
37694;BME280;23531;50.122;8.644;2024-01-10T02:35:15;101730.63;;;-3.10;nan
37694;BME280;23531;50.122;8.644;2024-01-10T02:37:17;101728.63;;;-3.21;nan
37694;BME280;23531;50.122;8.644;2024-01-10T02:39:18;101728.31;;;-3.31;nan
37694;BME280;23531;50.122;8.644;2024-01-10T02:41:23;101724.06;;;-3.17;nan
37694;BME280;23531;50.122;8.644;2024-01-10T02:43:24;101731.00;;;-3.16;nan
37694;BME280;23531;50.122;8.644;2024-01-10T02:45:28;101730.59;;;-3.24;nan
37694;BME280;23531;50.122;8.644;2024-01-10T02:47:30;101724.78;;;-3.15;nan
37694;BME280;23531;50.122;8.644;2024-01-10T02:49:31;101724.66;;;-2.98;nan
37694;BME280;23531;50.122;8.644;2024-01-10T02:51:32;101727.63;;;-3.04;nan
37694;BME280;23531;50.122;8.644;2024-01-10T02:53:34;101720.19;;;-3.12;nan
37694;BME280;23531;50.122;8.644;2024-01-10T02:55:35;101721.19;;;-3.28;nan
37694;BME280;23531;50.122;8.644;2024-01-10T02:57:38;101723.28;;;-3.19;nan
37694;BME280;23531;50.122;8.644;2024-01-10T02:59:39;101708.47;;;-3.06;nan
37694;BME280;23531;50.122;8.644;2024-01-10T03:01:41;101711.09;;;-3.06;nan
37694;BME280;23531;50.122;8.644;2024-01-10T03:03:41;101706.47;;;-3.17;nan
37694;BME280;23531;50.122;8.644;2024-01-10T03:05:43;101706.91;;;-3.39;nan
37694;BME280;23531;50.122;8.644;2024-01-10T03:07:44;101704.06;;;-3.06;nan
37694;BME280;23531;50.122;8.644;2024-01-10T03:09:46;101700.56;;;-2.92;nan
37694;BME280;23531;50.122;8.644;2024-01-10T03:11:50;101696.25;;;-3.37;nan
37694;BME280;23531;50.122;8.644;2024-01-10T03:14:07;101712.25;;;-3.26;nan
37694;BME280;23531;50.122;8.644;2024-01-10T03:16:11;101713.53;;;-3.17;nan
37694;BME280;23531;50.122;8.644;2024-01-10T03:18:12;101711.09;;;-3.06;nan
37694;BME280;23531;50.122;8.644;2024-01-10T03:20:13;101710.25;;;-2.93;nan
37694;BME280;23531;50.122;8.644;2024-01-10T03:22:14;101711.78;;;-2.88;nan
37694;BME280;23531;50.122;8.644;2024-01-10T03:24:16;101712.88;;;-2.93;nan
37694;BME280;23531;50.122;8.644;2024-01-10T03:26:17;101701.09;;;-3.15;nan
37694;BME280;23531;50.122;8.644;2024-01-10T03:28:19;101706.88;;;-3.09;nan
37694;BME280;23531;50.122;8.644;2024-01-10T03:30:21;101707.13;;;-3.13;nan
37694;BME280;23531;50.122;8.644;2024-01-10T03:32:24;101695.13;;;-2.89;nan
37694;BME280;23531;50.122;8.644;2024-01-10T03:34:25;101704.56;;;-2.85;nan
37694;BME280;23531;50.122;8.644;2024-01-10T03:36:27;101689.97;;;-2.76;nan
37694;BME280;23531;50.122;8.644;2024-01-10T03:38:28;101697.88;;;-2.76;nan
37694;BME280;23531;50.122;8.644;2024-01-10T03:40:30;101690.06;;;-2.78;nan
37694;BME280;23531;50.122;8.644;2024-01-10T03:42:30;101687.81;;;-2.98;nan
37694;BME280;23531;50.122;8.644;2024-01-10T03:44:31;101701.44;;;-2.77;nan
37694;BME280;23531;50.122;8.644;2024-01-10T03:46:34;101696.63;;;-2.99;nan
37694;BME280;23531;50.122;8.644;2024-01-10T03:48:36;101698.88;;;-2.93;nan
37694;BME280;23531;50.122;8.644;2024-01-10T03:50:38;101695.31;;;-2.92;nan
37694;BME280;23531;50.122;8.644;2024-01-10T03:52:40;101689.94;;;-3.05;nan
37694;BME280;23531;50.122;8.644;2024-01-10T03:54:40;101683.31;;;-2.96;nan
37694;BME280;23531;50.122;8.644;2024-01-10T03:56:42;101684.03;;;-2.80;nan
37694;BME280;23531;50.122;8.644;2024-01-10T03:58:43;101688.41;;;-3.23;nan
37694;BME280;23531;50.122;8.644;2024-01-10T04:00:44;101688.38;;;-3.07;nan
37694;BME280;23531;50.122;8.644;2024-01-10T04:02:47;101696.72;;;-3.01;nan
37694;BME280;23531;50.122;8.644;2024-01-10T04:04:48;101695.84;;;-3.15;nan
37694;BME280;23531;50.122;8.644;2024-01-10T04:06:50;101698.81;;;-3.66;nan
37694;BME280;23531;50.122;8.644;2024-01-10T04:08:51;101690.00;;;-3.64;nan
37694;BME280;23531;50.122;8.644;2024-01-10T04:10:53;101692.56;;;-3.49;nan
37694;BME280;23531;50.122;8.644;2024-01-10T04:12:53;101694.22;;;-3.32;nan
37694;BME280;23531;50.122;8.644;2024-01-10T04:14:55;101693.16;;;-3.44;nan
37694;BME280;23531;50.122;8.644;2024-01-10T04:16:55;101693.69;;;-3.98;nan
37694;BME280;23531;50.122;8.644;2024-01-10T04:18:58;101685.88;;;-3.84;nan
37694;BME280;23531;50.122;8.644;2024-01-10T04:20:59;101691.03;;;-3.83;nan
37694;BME280;23531;50.122;8.644;2024-01-10T04:23:00;101684.50;;;-3.91;nan
37694;BME280;23531;50.122;8.644;2024-01-10T04:25:05;101690.84;;;-3.80;nan
37694;BME280;23531;50.122;8.644;2024-01-10T04:27:07;101692.53;;;-3.63;nan
37694;BME280;23531;50.122;8.644;2024-01-10T04:29:08;101689.44;;;-3.85;nan
37694;BME280;23531;50.122;8.644;2024-01-10T04:31:09;101690.13;;;-4.13;nan
37694;BME280;23531;50.122;8.644;2024-01-10T04:33:11;101688.59;;;-3.86;nan
37694;BME280;23531;50.122;8.644;2024-01-10T04:35:14;101692.69;;;-3.50;nan
37694;BME280;23531;50.122;8.644;2024-01-10T04:37:15;101697.88;;;-3.35;nan
37694;BME280;23531;50.122;8.644;2024-01-10T04:39:16;101691.16;;;-3.10;nan
37694;BME280;23531;50.122;8.644;2024-01-10T04:41:18;101688.72;;;-3.13;nan
37694;BME280;23531;50.122;8.644;2024-01-10T04:43:20;101692.41;;;-3.02;nan
37694;BME280;23531;50.122;8.644;2024-01-10T04:45:21;101693.50;;;-3.20;nan
37694;BME280;23531;50.122;8.644;2024-01-10T04:47:23;101692.28;;;-3.14;nan
37694;BME280;23531;50.122;8.644;2024-01-10T04:49:24;101700.34;;;-3.32;nan
37694;BME280;23531;50.122;8.644;2024-01-10T04:51:27;101694.31;;;-3.34;nan
37694;BME280;23531;50.122;8.644;2024-01-10T04:53:27;101687.22;;;-3.17;nan
37694;BME280;23531;50.122;8.644;2024-01-10T04:55:29;101688.91;;;-3.16;nan
37694;BME280;23531;50.122;8.644;2024-01-10T04:57:31;101690.53;;;-3.44;nan
37694;BME280;23531;50.122;8.644;2024-01-10T04:59:32;101695.19;;;-3.94;nan
37694;BME280;23531;50.122;8.644;2024-01-10T05:01:33;101694.22;;;-3.62;nan
37694;BME280;23531;50.122;8.644;2024-01-10T05:03:34;101702.75;;;-3.43;nan
37694;BME280;23531;50.122;8.644;2024-01-10T05:05:36;101693.91;;;-3.42;nan
37694;BME280;23531;50.122;8.644;2024-01-10T05:07:38;101694.56;;;-3.38;nan
37694;BME280;23531;50.122;8.644;2024-01-10T05:09:40;101701.44;;;-3.36;nan
37694;BME280;23531;50.122;8.644;2024-01-10T05:11:40;101688.72;;;-3.13;nan
37694;BME280;23531;50.122;8.644;2024-01-10T05:13:42;101693.22;;;-3.15;nan
37694;BME280;23531;50.122;8.644;2024-01-10T05:15:44;101682.63;;;-3.00;nan
37694;BME280;23531;50.122;8.644;2024-01-10T05:17:45;101679.09;;;-2.84;nan
37694;BME280;23531;50.122;8.644;2024-01-10T05:19:46;101692.88;;;-2.81;nan
37694;BME280;23531;50.122;8.644;2024-01-10T05:21:48;101687.22;;;-3.03;nan
37694;BME280;23531;50.122;8.644;2024-01-10T05:23:51;101677.47;;;-3.01;nan
37694;BME280;23531;50.122;8.644;2024-01-10T05:25:53;101685.00;;;-2.95;nan
37694;BME280;23531;50.122;8.644;2024-01-10T05:27:53;101681.03;;;-3.16;nan
37694;BME280;23531;50.122;8.644;2024-01-10T05:29:55;101685.72;;;-3.07;nan
37694;BME280;23531;50.122;8.644;2024-01-10T05:31:56;101681.59;;;-3.11;nan
37694;BME280;23531;50.122;8.644;2024-01-10T05:33:58;101682.44;;;-2.97;nan
37694;BME280;23531;50.122;8.644;2024-01-10T05:35:59;101678.13;;;-2.98;nan
37694;BME280;23531;50.122;8.644;2024-01-10T05:38:00;101685.91;;;-2.82;nan
37694;BME280;23531;50.122;8.644;2024-01-10T05:40:05;101679.63;;;-2.79;nan
37694;BME280;23531;50.122;8.644;2024-01-10T05:42:07;101682.06;;;-2.90;nan
37694;BME280;23531;50.122;8.644;2024-01-10T05:44:09;101687.13;;;-3.46;nan
37694;BME280;23531;50.122;8.644;2024-01-10T05:46:10;101685.09;;;-3.41;nan
37694;BME280;23531;50.122;8.644;2024-01-10T05:48:12;101686.59;;;-3.67;nan
37694;BME280;23531;50.122;8.644;2024-01-10T05:50:13;101684.34;;;-3.43;nan
37694;BME280;23531;50.122;8.644;2024-01-10T05:52:15;101690.81;;;-3.34;nan
37694;BME280;23531;50.122;8.644;2024-01-10T05:54:16;101676.69;;;-3.17;nan
37694;BME280;23531;50.122;8.644;2024-01-10T05:56:19;101680.38;;;-3.06;nan
37694;BME280;23531;50.122;8.644;2024-01-10T05:58:21;101680.66;;;-3.10;nan
37694;BME280;23531;50.122;8.644;2024-01-10T06:00:22;101680.94;;;-3.01;nan
37694;BME280;23531;50.122;8.644;2024-01-10T06:02:24;101691.94;;;-3.08;nan
37694;BME280;23531;50.122;8.644;2024-01-10T06:04:26;101683.09;;;-3.07;nan
37694;BME280;23531;50.122;8.644;2024-01-10T06:06:28;101677.53;;;-3.17;nan
37694;BME280;23531;50.122;8.644;2024-01-10T06:08:28;101684.03;;;-3.38;nan
37694;BME280;23531;50.122;8.644;2024-01-10T06:10:30;101681.31;;;-3.07;nan
37694;BME280;23531;50.122;8.644;2024-01-10T06:12:33;101676.16;;;-3.08;nan
37694;BME280;23531;50.122;8.644;2024-01-10T06:14:33;101680.47;;;-3.07;nan
37694;BME280;23531;50.122;8.644;2024-01-10T06:16:34;101673.78;;;-3.13;nan
37694;BME280;23531;50.122;8.644;2024-01-10T06:18:36;101682.38;;;-2.95;nan
37694;BME280;23531;50.122;8.644;2024-01-10T06:20:38;101682.28;;;-3.68;nan
37694;BME280;23531;50.122;8.644;2024-01-10T06:22:40;101682.13;;;-3.80;nan
37694;BME280;23531;50.122;8.644;2024-01-10T06:24:42;101686.00;;;-3.72;nan
37694;BME280;23531;50.122;8.644;2024-01-10T06:26:43;101692.63;;;-3.35;nan
37694;BME280;23531;50.122;8.644;2024-01-10T06:28:46;101695.63;;;-3.41;nan
37694;BME280;23531;50.122;8.644;2024-01-10T06:30:47;101689.94;;;-3.05;nan
37694;BME280;23531;50.122;8.644;2024-01-10T06:32:48;101685.06;;;-3.11;nan
37694;BME280;23531;50.122;8.644;2024-01-10T06:34:50;101687.31;;;-3.05;nan
37694;BME280;23531;50.122;8.644;2024-01-10T06:36:50;101683.44;;;-3.57;nan
37694;BME280;23531;50.122;8.644;2024-01-10T06:38:51;101685.28;;;-3.59;nan
37694;BME280;23531;50.122;8.644;2024-01-10T06:40:53;101692.34;;;-3.60;nan
37694;BME280;23531;50.122;8.644;2024-01-10T06:42:54;101693.06;;;-3.42;nan
37694;BME280;23531;50.122;8.644;2024-01-10T06:44:57;101695.31;;;-3.36;nan
37694;BME280;23531;50.122;8.644;2024-01-10T06:46:58;101690.31;;;-3.11;nan
37694;BME280;23531;50.122;8.644;2024-01-10T06:49:00;101684.81;;;-3.36;nan
37694;BME280;23531;50.122;8.644;2024-01-10T06:51:01;101690.50;;;-3.28;nan
37694;BME280;23531;50.122;8.644;2024-01-10T06:53:03;101687.00;;;-3.14;nan
37694;BME280;23531;50.122;8.644;2024-01-10T06:55:06;101692.78;;;-3.08;nan
37694;BME280;23531;50.122;8.644;2024-01-10T06:57:08;101697.03;;;-3.05;nan
37694;BME280;23531;50.122;8.644;2024-01-10T06:59:09;101696.22;;;-3.21;nan
37694;BME280;23531;50.122;8.644;2024-01-10T07:01:13;101694.91;;;-3.14;nan
37694;BME280;23531;50.122;8.644;2024-01-10T07:03:15;101697.53;;;-3.14;nan
37694;BME280;23531;50.122;8.644;2024-01-10T07:05:16;101700.28;;;-3.02;nan
37694;BME280;23531;50.122;8.644;2024-01-10T07:07:17;101699.81;;;-3.08;nan
37694;BME280;23531;50.122;8.644;2024-01-10T07:09:18;101702.91;;;-3.02;nan
37694;BME280;23531;50.122;8.644;2024-01-10T07:11:19;101705.63;;;-3.47;nan
37694;BME280;23531;50.122;8.644;2024-01-10T07:13:22;101706.59;;;-3.64;nan
37694;BME280;23531;50.122;8.644;2024-01-10T07:15:23;101705.38;;;-3.43;nan
37694;BME280;23531;50.122;8.644;2024-01-10T07:17:26;101709.53;;;-3.24;nan
37694;BME280;23531;50.122;8.644;2024-01-10T07:19:27;101711.09;;;-3.06;nan
37694;BME280;23531;50.122;8.644;2024-01-10T07:21:29;101711.19;;;-3.08;nan
37694;BME280;23531;50.122;8.644;2024-01-10T07:23:30;101712.03;;;-3.07;nan
37694;BME280;23531;50.122;8.644;2024-01-10T07:25:32;101710.16;;;-3.05;nan
37694;BME280;23531;50.122;8.644;2024-01-10T07:27:34;101709.53;;;-2.95;nan
37694;BME280;23531;50.122;8.644;2024-01-10T07:29:34;101711.69;;;-2.87;nan
37694;BME280;23531;50.122;8.644;2024-01-10T07:31:36;101711.66;;;-3.01;nan
37694;BME280;23531;50.122;8.644;2024-01-10T07:33:38;101712.72;;;-2.89;nan
37694;BME280;23531;50.122;8.644;2024-01-10T07:35:40;101718.06;;;-2.91;nan
37694;BME280;23531;50.122;8.644;2024-01-10T07:37:42;101713.28;;;-2.99;nan
37694;BME280;23531;50.122;8.644;2024-01-10T07:39:43;101718.47;;;-2.83;nan
37694;BME280;23531;50.122;8.644;2024-01-10T07:41:44;101717.16;;;-2.76;nan
37694;BME280;23531;50.122;8.644;2024-01-10T07:43:45;101724.28;;;-2.78;nan
37694;BME280;23531;50.122;8.644;2024-01-10T07:45:47;101728.78;;;-2.80;nan
37694;BME280;23531;50.122;8.644;2024-01-10T07:47:49;101730.31;;;-2.76;nan
37694;BME280;23531;50.122;8.644;2024-01-10T07:49:52;101732.38;;;-2.81;nan
37694;BME280;23531;50.122;8.644;2024-01-10T07:51:53;101733.94;;;-2.93;nan
37694;BME280;23531;50.122;8.644;2024-01-10T07:53:55;101731.28;;;-3.51;nan
37694;BME280;23531;50.122;8.644;2024-01-10T07:55:56;101740.47;;;-3.44;nan
37694;BME280;23531;50.122;8.644;2024-01-10T07:57:58;101737.69;;;-3.41;nan
37694;BME280;23531;50.122;8.644;2024-01-10T07:59:59;101744.25;;;-3.18;nan
37694;BME280;23531;50.122;8.644;2024-01-10T08:02:00;101752.28;;;-2.91;nan
37694;BME280;23531;50.122;8.644;2024-01-10T08:04:02;101744.47;;;-3.07;nan
37694;BME280;23531;50.122;8.644;2024-01-10T08:06:05;101755.34;;;-3.43;nan
37694;BME280;23531;50.122;8.644;2024-01-10T08:08:07;101758.09;;;-3.76;nan
37694;BME280;23531;50.122;8.644;2024-01-10T08:10:10;101756.19;;;-3.58;nan
37694;BME280;23531;50.122;8.644;2024-01-10T08:12:11;101751.88;;;-3.59;nan
37694;BME280;23531;50.122;8.644;2024-01-10T08:14:12;101748.91;;;-3.69;nan
37694;BME280;23531;50.122;8.644;2024-01-10T08:16:13;101753.19;;;-3.97;nan
37694;BME280;23531;50.122;8.644;2024-01-10T08:18:15;101754.84;;;-3.81;nan
37694;BME280;23531;50.122;8.644;2024-01-10T08:20:16;101747.56;;;-3.76;nan
37694;BME280;23531;50.122;8.644;2024-01-10T08:22:22;101752.66;;;-3.73;nan
37694;BME280;23531;50.122;8.644;2024-01-10T08:24:24;101760.13;;;-3.65;nan
37694;BME280;23531;50.122;8.644;2024-01-10T08:26:24;101756.13;;;-3.26;nan
37694;BME280;23531;50.122;8.644;2024-01-10T08:28:26;101756.88;;;-3.24;nan
37694;BME280;23531;50.122;8.644;2024-01-10T08:30:27;101758.84;;;-2.98;nan
37694;BME280;23531;50.122;8.644;2024-01-10T08:32:28;101759.03;;;-3.01;nan
37694;BME280;23531;50.122;8.644;2024-01-10T08:34:30;101759.25;;;-3.20;nan
37694;BME280;23531;50.122;8.644;2024-01-10T08:36:30;101758.03;;;-3.28;nan
37694;BME280;23531;50.122;8.644;2024-01-10T08:38:33;101760.28;;;-3.22;nan
37694;BME280;23531;50.122;8.644;2024-01-10T08:40:35;101759.72;;;-3.27;nan
37694;BME280;23531;50.122;8.644;2024-01-10T08:42:35;101753.63;;;-3.28;nan
37694;BME280;23531;50.122;8.644;2024-01-10T08:44:38;101765.44;;;-2.91;nan
37694;BME280;23531;50.122;8.644;2024-01-10T08:46:39;101757.22;;;-2.57;nan
37694;BME280;23531;50.122;8.644;2024-01-10T08:48:41;101754.78;;;-2.60;nan
37694;BME280;23531;50.122;8.644;2024-01-10T08:50:42;101764.19;;;-2.56;nan
37694;BME280;23531;50.122;8.644;2024-01-10T08:52:44;101767.44;;;-2.80;nan
37694;BME280;23531;50.122;8.644;2024-01-10T08:54:46;101760.69;;;-2.84;nan
37694;BME280;23531;50.122;8.644;2024-01-10T08:56:47;101773.34;;;-2.91;nan
37694;BME280;23531;50.122;8.644;2024-01-10T08:58:49;101763.34;;;-3.00;nan
37694;BME280;23531;50.122;8.644;2024-01-10T09:00:50;101774.06;;;-3.03;nan
37694;BME280;23531;50.122;8.644;2024-01-10T09:02:52;101772.00;;;-2.98;nan
37694;BME280;23531;50.122;8.644;2024-01-10T09:04:53;101766.75;;;-2.98;nan
37694;BME280;23531;50.122;8.644;2024-01-10T09:06:55;101779.28;;;-2.87;nan
37694;BME280;23531;50.122;8.644;2024-01-10T09:08:57;101781.13;;;-2.89;nan
37694;BME280;23531;50.122;8.644;2024-01-10T09:11:00;101781.25;;;-2.77;nan
37694;BME280;23531;50.122;8.644;2024-01-10T09:13:01;101779.22;;;-2.72;nan
37694;BME280;23531;50.122;8.644;2024-01-10T09:15:03;101781.72;;;-2.84;nan
37694;BME280;23531;50.122;8.644;2024-01-10T09:17:05;101783.59;;;-2.86;nan
37694;BME280;23531;50.122;8.644;2024-01-10T09:19:07;101782.41;;;-2.67;nan
37694;BME280;23531;50.122;8.644;2024-01-10T09:21:10;101779.16;;;-2.28;nan
37694;BME280;23531;50.122;8.644;2024-01-10T09:23:12;101783.66;;;-2.15;nan
37694;BME280;23531;50.122;8.644;2024-01-10T09:25:14;101782.31;;;-1.94;nan
37694;BME280;23531;50.122;8.644;2024-01-10T09:27:17;101790.50;;;-2.13;nan
37694;BME280;23531;50.122;8.644;2024-01-10T09:29:19;101782.25;;;-2.07;nan
37694;BME280;23531;50.122;8.644;2024-01-10T09:31:20;101790.88;;;-1.91;nan
37694;BME280;23531;50.122;8.644;2024-01-10T09:33:22;101786.53;;;-1.92;nan
37694;BME280;23531;50.122;8.644;2024-01-10T09:35:23;101786.94;;;-1.98;nan
37694;BME280;23531;50.122;8.644;2024-01-10T09:37:25;101796.69;;;-1.86;nan
37694;BME280;23531;50.122;8.644;2024-01-10T09:39:26;101791.34;;;-1.98;nan
37694;BME280;23531;50.122;8.644;2024-01-10T09:41:28;101805.56;;;-1.87;nan
37694;BME280;23531;50.122;8.644;2024-01-10T09:43:33;101806.28;;;-1.70;nan
37694;BME280;23531;50.122;8.644;2024-01-10T09:45:35;101798.69;;;-1.48;nan
37694;BME280;23531;50.122;8.644;2024-01-10T09:47:37;101806.63;;;-1.48;nan
37694;BME280;23531;50.122;8.644;2024-01-10T09:49:40;101807.75;;;-2.22;nan
37694;BME280;23531;50.122;8.644;2024-01-10T09:51:42;101809.31;;;-2.47;nan
37694;BME280;23531;50.122;8.644;2024-01-10T09:53:44;101803.88;;;-2.44;nan
37694;BME280;23531;50.122;8.644;2024-01-10T09:55:50;101801.63;;;-2.50;nan
37694;BME280;23531;50.122;8.644;2024-01-10T09:57:50;101809.88;;;-2.57;nan
37694;BME280;23531;50.122;8.644;2024-01-10T09:59:53;101801.22;;;-2.73;nan
37694;BME280;23531;50.122;8.644;2024-01-10T10:01:56;101793.63;;;-2.49;nan
37694;BME280;23531;50.122;8.644;2024-01-10T10:03:58;101795.41;;;-2.49;nan
37694;BME280;23531;50.122;8.644;2024-01-10T10:06:02;101796.72;;;-2.14;nan
37694;BME280;23531;50.122;8.644;2024-01-10T10:08:06;101799.81;;;-2.36;nan
37694;BME280;23531;50.122;8.644;2024-01-10T10:10:08;101796.75;;;-2.28;nan
37694;BME280;23531;50.122;8.644;2024-01-10T10:12:10;101792.78;;;-2.07;nan
37694;BME280;23531;50.122;8.644;2024-01-10T10:14:15;101788.34;;;-2.06;nan
37694;BME280;23531;50.122;8.644;2024-01-10T10:16:23;101792.38;;;-1.87;nan
37694;BME280;23531;50.122;8.644;2024-01-10T10:18:25;101789.78;;;-1.60;nan
37694;BME280;23531;50.122;8.644;2024-01-10T10:20:27;101787.16;;;-1.60;nan
37694;BME280;23531;50.122;8.644;2024-01-10T10:22:30;101787.59;;;-2.08;nan
37694;BME280;23531;50.122;8.644;2024-01-10T10:24:31;101790.91;;;-2.05;nan
37694;BME280;23531;50.122;8.644;2024-01-10T10:26:33;101785.16;;;-2.11;nan
37694;BME280;23531;50.122;8.644;2024-01-10T10:28:35;101784.97;;;-1.94;nan
37694;BME280;23531;50.122;8.644;2024-01-10T10:30:36;101781.91;;;-1.74;nan
37694;BME280;23531;50.122;8.644;2024-01-10T10:32:39;101776.94;;;-1.52;nan
37694;BME280;23531;50.122;8.644;2024-01-10T10:34:40;101774.97;;;-1.35;nan
37694;BME280;23531;50.122;8.644;2024-01-10T10:36:42;101780.72;;;-1.29;nan
37694;BME280;23531;50.122;8.644;2024-01-10T10:38:43;101782.75;;;-1.20;nan
37694;BME280;23531;50.122;8.644;2024-01-10T10:40:45;101780.34;;;-1.10;nan
37694;BME280;23531;50.122;8.644;2024-01-10T10:42:47;101784.38;;;-1.04;nan
37694;BME280;23531;50.122;8.644;2024-01-10T10:44:50;101774.56;;;-1.02;nan
37694;BME280;23531;50.122;8.644;2024-01-10T10:46:53;101777.63;;;-0.96;nan
37694;BME280;23531;50.122;8.644;2024-01-10T10:48:59;101772.06;;;-0.91;nan
37694;BME280;23531;50.122;8.644;2024-01-10T10:51:04;101776.50;;;-0.79;nan
37694;BME280;23531;50.122;8.644;2024-01-10T10:53:07;101767.84;;;-0.68;nan